Time;durP1;ratioP1;P1;durP2;ratioP2;P2;SDS_P1;SDS_P2;PMS_P1;PMS_P2;Temp;Humidity;BMP_temperature;BMP_pressure;BME280_temperature;BME280_humidity;BME280_pressure;Samples;Min_cycle;Max_cycle;Signal;HPM_P1;HPM_P2
2024/03/02 00:00:22;;;;;;;12.47;7.93;;;6.60;99.90;;;;;;4959761;28;20243;-73
2024/03/02 00:02:49;;;;;;;9.10;6.60;;;6.70;99.90;;;;;;4962220;28;20490;-73
2024/03/02 00:05:19;;;;;;;8.83;6.67;;;6.70;99.90;;;;;;4960687;28;20468;-73
2024/03/02 00:07:54;;;;;;;12.73;7.50;;;6.70;99.90;;;;;;4962839;28;20462;-73
2024/03/02 00:10:29;;;;;;;11.47;6.97;;;6.70;99.90;;;;;;4958106;28;20450;-73
2024/03/02 00:12:56;;;;;;;10.73;6.30;;;6.50;99.90;;;;;;4958118;28;20475;-73
2024/03/02 00:15:25;;;;;;;6.87;5.50;;;6.50;99.90;;;;;;4958845;28;20473;-72
2024/03/02 00:17:54;;;;;;;8.60;6.70;;;6.60;99.90;;;;;;4959227;28;20471;-73
2024/03/02 00:20:23;;;;;;;9.53;6.97;;;6.70;99.90;;;;;;4959417;28;20478;-73
2024/03/02 00:22:53;;;;;;;9.40;6.10;;;6.60;99.90;;;;;;4974521;28;21129;-73
2024/03/02 00:25:19;;;;;;;10.47;7.13;;;6.60;99.90;;;;;;4961293;28;20969;-73
2024/03/02 00:27:49;;;;;;;11.10;7.57;;;6.60;99.90;;;;;;4976915;28;20456;-73
2024/03/02 00:30:46;;;;;;;9.13;5.90;;;6.50;99.90;;;;;;4970550;28;20395;-73
2024/03/02 00:33:12;;;;;;;8.00;5.93;;;6.50;99.90;;;;;;4959030;28;20823;-73
2024/03/02 00:35:37;;;;;;;8.70;6.20;;;6.50;99.90;;;;;;4943681;28;20518;-74
2024/03/02 00:38:05;;;;;;;10.07;6.87;;;6.50;99.90;;;;;;4956956;28;20245;-74
2024/03/02 00:40:31;;;;;;;8.73;6.20;;;6.50;99.90;;;;;;4960761;28;20241;-74
2024/03/02 00:42:57;;;;;;;7.50;6.17;;;6.50;99.90;;;;;;4955016;28;20459;-74
2024/03/02 00:45:24;;;;;;;10.30;7.30;;;6.40;99.90;;;;;;4962592;28;20231;-74
2024/03/02 00:47:50;;;;;;;10.50;6.50;;;6.50;99.90;;;;;;4966490;28;20215;-75
2024/03/02 00:50:17;;;;;;;7.10;6.03;;;6.50;99.90;;;;;;4961633;28;20454;-74
2024/03/02 00:52:43;;;;;;;9.10;6.60;;;6.50;99.90;;;;;;4966933;28;20469;-74
2024/03/02 00:55:08;;;;;;;8.60;6.20;;;6.40;99.90;;;;;;4961318;28;20610;-75
2024/03/02 00:57:34;;;;;;;8.53;6.07;;;6.40;99.90;;;;;;4963348;28;20545;-75
2024/03/02 01:00:01;;;;;;;11.50;7.37;;;6.40;99.90;;;;;;4962171;28;20223;-75
2024/03/02 01:02:27;;;;;;;9.60;7.50;;;6.40;99.90;;;;;;4964050;28;20557;-74
2024/03/02 01:04:53;;;;;;;19.53;12.93;;;6.40;99.90;;;;;;4962767;28;20504;-74
2024/03/02 01:07:19;;;;;;;18.57;16.60;;;6.40;99.90;;;;;;4958533;28;20449;-75
2024/03/02 01:09:45;;;;;;;13.17;11.23;;;6.40;99.90;;;;;;4977546;28;20214;-74
2024/03/02 01:12:10;;;;;;;15.30;11.30;;;6.40;99.90;;;;;;4943844;28;20654;-74
2024/03/02 01:14:36;;;;;;;18.97;10.57;;;6.40;99.90;;;;;;4964830;28;20454;-74
2024/03/02 01:17:04;;;;;;;15.17;9.93;;;6.40;99.90;;;;;;4957438;28;20210;-74
2024/03/02 01:19:30;;;;;;;13.50;10.50;;;6.40;99.90;;;;;;4965509;28;20229;-74
2024/03/02 01:21:56;;;;;;;17.73;12.87;;;6.40;99.90;;;;;;4974808;28;20466;-74
2024/03/02 01:24:22;;;;;;;18.63;13.20;;;6.40;99.90;;;;;;4964062;28;20305;-74
2024/03/02 01:26:47;;;;;;;11.53;10.03;;;6.40;99.90;;;;;;4964387;28;20930;-74
2024/03/02 01:29:13;;;;;;;14.00;9.37;;;6.40;99.90;;;;;;4959475;28;20234;-75
2024/03/02 01:31:41;;;;;;;10.90;8.07;;;6.40;99.90;;;;;;4950945;28;20222;-74
2024/03/02 01:34:08;;;;;;;13.97;9.17;;;6.40;99.90;;;;;;4961612;28;20215;-75
2024/03/02 01:36:34;;;;;;;8.90;7.77;;;6.40;99.90;;;;;;4961637;28;20476;-74
2024/03/02 01:38:59;;;;;;;10.87;8.20;;;6.40;99.90;;;;;;4963392;28;20460;-73
2024/03/02 01:41:25;;;;;;;13.13;8.73;;;6.40;99.90;;;;;;4949400;28;20246;-73
2024/03/02 01:43:51;;;;;;;16.07;12.90;;;6.40;99.90;;;;;;4960433;28;20700;-72
2024/03/02 01:46:16;;;;;;;22.87;17.20;;;6.30;99.90;;;;;;4960288;28;20226;-72
2024/03/02 01:48:42;;;;;;;24.17;19.23;;;6.30;99.90;;;;;;4965820;28;20222;-72
2024/03/02 01:51:08;;;;;;;18.97;16.93;;;6.30;99.90;;;;;;4955797;28;20297;-73
2024/03/02 01:53:35;;;;;;;18.77;13.73;;;6.30;99.90;;;;;;4963942;28;20215;-72
2024/03/02 01:56:01;;;;;;;12.87;11.03;;;6.30;99.90;;;;;;4960939;28;20214;-73
2024/03/02 01:58:27;;;;;;;10.03;8.60;;;6.30;99.90;;;;;;4957892;28;20453;-72
2024/03/02 02:00:53;;;;;;;11.23;8.00;;;6.30;99.90;;;;;;4963955;28;20549;-72
2024/03/02 02:03:18;;;;;;;11.07;7.07;;;6.20;99.90;;;;;;4960898;28;20481;-73
2024/03/02 02:05:44;;;;;;;9.70;6.47;;;6.30;99.90;;;;;;4963698;28;20227;-72
2024/03/02 02:08:10;;;;;;;11.10;7.67;;;6.30;99.90;;;;;;4963352;28;20528;-72
2024/03/02 02:10:36;;;;;;;8.60;6.80;;;6.20;99.90;;;;;;4962168;28;20249;-73
2024/03/02 02:13:02;;;;;;;13.83;7.00;;;6.20;99.90;;;;;;4955704;28;20290;-73
2024/03/02 02:15:30;;;;;;;11.20;6.93;;;6.20;99.90;;;;;;4947880;28;20518;-73
2024/03/02 02:17:57;;;;;;;9.30;6.20;;;6.20;99.90;;;;;;4960417;28;20558;-73
2024/03/02 02:20:23;;;;;;;8.90;6.63;;;6.20;99.90;;;;;;4962575;28;20496;-73
2024/03/02 02:23:01;;;;;;;8.60;6.60;;;6.10;99.90;;;;;;4964231;28;20473;-72
2024/03/02 02:25:28;;;;;;;10.30;7.07;;;6.10;99.90;;;;;;4960798;28;20458;-73
2024/03/02 02:27:55;;;;;;;12.93;7.43;;;6.10;99.90;;;;;;4962061;28;20450;-72
2024/03/02 02:30:26;;;;;;;13.00;7.33;;;6.10;99.90;;;;;;4961589;28;20820;-73
2024/03/02 02:32:52;;;;;;;8.73;6.40;;;6.10;99.90;;;;;;4963278;28;20549;-73
2024/03/02 02:35:18;;;;;;;9.73;6.97;;;6.10;99.90;;;;;;4961475;28;20545;-73
2024/03/02 02:37:45;;;;;;;13.00;6.80;;;6.10;99.90;;;;;;4961533;28;20659;-73
2024/03/02 02:40:12;;;;;;;11.47;7.90;;;6.10;99.90;;;;;;4960478;28;20450;-72
2024/03/02 02:42:38;;;;;;;11.20;6.50;;;6.10;99.90;;;;;;4965887;28;20886;-73
2024/03/02 02:45:05;;;;;;;11.70;6.80;;;6.10;99.90;;;;;;4973761;28;20486;-72
2024/03/02 02:47:33;;;;;;;8.97;6.27;;;6.10;99.90;;;;;;4962952;28;20454;-73
2024/03/02 02:49:59;;;;;;;12.20;7.30;;;6.00;99.90;;;;;;4957174;28;20977;-73
2024/03/02 02:52:24;;;;;;;10.20;7.03;;;6.00;99.90;;;;;;4964202;28;20469;-73
2024/03/02 02:54:51;;;;;;;10.33;7.50;;;6.00;99.90;;;;;;4962553;28;20211;-73
2024/03/02 02:57:16;;;;;;;10.20;6.83;;;6.00;99.90;;;;;;4945255;28;20812;-73
2024/03/02 02:59:42;;;;;;;11.67;7.20;;;5.90;99.90;;;;;;4963546;28;20538;-73
2024/03/02 03:02:08;;;;;;;10.80;8.60;;;5.90;99.90;;;;;;4958051;28;20319;-73
2024/03/02 03:04:33;;;;;;;11.97;8.23;;;5.80;99.90;;;;;;4963632;28;20213;-74
2024/03/02 03:06:59;;;;;;;11.43;7.60;;;5.90;99.90;;;;;;4957297;28;20226;-73
2024/03/02 03:09:25;;;;;;;13.07;8.17;;;5.80;99.90;;;;;;4958517;28;20228;-73
2024/03/02 03:11:50;;;;;;;12.03;7.07;;;5.80;99.90;;;;;;4959882;28;20242;-72
2024/03/02 03:14:16;;;;;;;9.17;7.23;;;5.80;99.90;;;;;;4955296;28;20462;-72
2024/03/02 03:16:42;;;;;;;11.60;7.90;;;5.70;99.90;;;;;;4956678;28;20314;-73
2024/03/02 03:19:08;;;;;;;11.00;7.30;;;5.70;99.90;;;;;;4957733;28;20252;-73
2024/03/02 03:21:34;;;;;;;12.23;7.40;;;5.70;99.90;;;;;;4964496;28;20318;-73
2024/03/02 03:23:59;;;;;;;11.93;7.50;;;5.70;99.90;;;;;;4966098;28;20545;-73
2024/03/02 03:26:25;;;;;;;10.50;6.83;;;5.70;99.90;;;;;;4967361;28;20566;-73
2024/03/02 03:28:50;;;;;;;13.27;7.90;;;5.70;99.90;;;;;;4971125;28;20233;-73
2024/03/02 03:31:16;;;;;;;12.50;8.37;;;5.50;99.90;;;;;;4981455;28;20219;-73
2024/03/02 03:33:42;;;;;;;11.60;8.20;;;5.50;99.90;;;;;;4969735;28;20225;-72
2024/03/02 03:36:07;;;;;;;13.03;8.23;;;5.50;99.90;;;;;;4967507;28;20226;-73
2024/03/02 03:38:33;;;;;;;14.83;8.13;;;5.50;99.90;;;;;;4964679;28;20211;-73
2024/03/02 03:40:58;;;;;;;13.70;8.50;;;5.50;99.90;;;;;;4967454;28;20238;-73
2024/03/02 03:43:24;;;;;;;14.50;9.03;;;5.50;99.90;;;;;;4966210;28;20245;-73
2024/03/02 03:45:50;;;;;;;12.30;8.37;;;5.40;99.90;;;;;;4965805;28;20727;-72
2024/03/02 03:48:16;;;;;;;14.10;7.40;;;5.50;99.90;;;;;;4966186;28;20306;-72
2024/03/02 03:50:41;;;;;;;12.50;8.30;;;5.50;99.90;;;;;;4967350;28;20226;-73
2024/03/02 03:53:07;;;;;;;15.97;8.27;;;5.20;99.90;;;;;;4966611;28;20257;-73
2024/03/02 03:55:32;;;;;;;9.87;7.53;;;5.20;99.90;;;;;;4964577;28;20230;-73
2024/03/02 03:57:58;;;;;;;14.90;8.93;;;5.30;99.90;;;;;;4966490;28;20235;-73
2024/03/02 04:00:24;;;;;;;12.53;8.20;;;5.40;99.90;;;;;;4967470;28;20709;-73
2024/03/02 04:02:50;;;;;;;12.20;9.30;;;5.40;99.90;;;;;;4966156;28;20446;-72
2024/03/02 04:05:15;;;;;;;14.27;8.97;;;5.50;99.90;;;;;;4968255;28;20589;-73
2024/03/02 04:07:42;;;;;;;14.30;9.10;;;5.50;99.90;;;;;;4966827;28;20246;-73
2024/03/02 04:10:09;;;;;;;11.40;8.30;;;5.50;99.90;;;;;;4966163;28;20223;-73
2024/03/02 04:12:36;;;;;;;14.43;8.70;;;5.40;99.90;;;;;;4970225;28;20458;-73
2024/03/02 04:15:04;;;;;;;16.83;8.40;;;5.40;99.90;;;;;;4962625;28;20458;-73
2024/03/02 04:17:31;;;;;;;11.93;7.97;;;5.40;99.90;;;;;;4962841;28;20454;-72
2024/03/02 04:19:57;;;;;;;13.60;7.93;;;5.40;99.90;;;;;;4966132;28;20453;-73
2024/03/02 04:22:23;;;;;;;14.23;8.70;;;5.40;99.90;;;;;;4964573;28;20496;-72
2024/03/02 04:24:48;;;;;;;11.03;8.63;;;5.40;99.90;;;;;;4948114;28;20255;-72
2024/03/02 04:27:14;;;;;;;15.17;8.03;;;5.40;99.90;;;;;;4960290;28;20296;-73
2024/03/02 04:29:39;;;;;;;14.80;8.27;;;5.40;99.90;;;;;;4961244;28;20269;-72
2024/03/02 04:32:05;;;;;;;11.97;8.30;;;5.40;99.90;;;;;;4956660;28;20643;-73
2024/03/02 04:34:31;;;;;;;14.77;9.10;;;5.30;99.90;;;;;;4955900;28;20226;-72
2024/03/02 04:36:57;;;;;;;15.40;8.00;;;5.20;99.90;;;;;;4954817;28;20227;-73
2024/03/02 04:39:22;;;;;;;13.60;9.43;;;5.20;99.90;;;;;;4958900;28;20219;-73
2024/03/02 04:41:48;;;;;;;12.67;8.60;;;5.20;99.90;;;;;;4959442;28;20265;-73
2024/03/02 04:44:13;;;;;;;12.40;9.03;;;5.20;99.90;;;;;;4959474;28;20219;-73
2024/03/02 04:46:39;;;;;;;13.63;8.40;;;5.20;99.90;;;;;;4957178;28;20225;-73
2024/03/02 04:49:05;;;;;;;13.57;8.70;;;5.10;99.90;;;;;;4957559;28;20295;-73
2024/03/02 04:51:30;;;;;;;14.83;8.30;;;5.00;99.90;;;;;;4960994;28;20229;-73
2024/03/02 04:53:56;;;;;;;12.70;7.80;;;5.00;99.90;;;;;;4940617;28;20215;-73
2024/03/02 04:56:40;;;;;;;13.47;8.67;;;5.00;99.90;;;;;;4958707;28;20219;-73
2024/03/02 04:59:06;;;;;;;13.60;8.13;;;5.10;99.90;;;;;;4960679;28;20218;-73
2024/03/02 05:01:33;;;;;;;13.90;8.73;;;5.10;99.90;;;;;;4959099;28;20591;-73
2024/03/02 05:03:59;;;;;;;11.30;7.40;;;5.10;99.90;;;;;;4956577;28;20490;-73
2024/03/02 05:06:24;;;;;;;14.03;7.70;;;5.10;99.90;;;;;;4964130;28;20458;-72
2024/03/02 05:08:50;;;;;;;13.07;8.40;;;5.10;99.90;;;;;;4944637;28;20215;-72
2024/03/02 05:13:59;;;;;;;12.93;9.20;;;5.00;99.90;;;;;;4952334;28;20230;-73
2024/03/02 05:16:25;;;;;;;11.87;7.77;;;5.00;99.90;;;;;;4959820;28;20462;-73
2024/03/02 05:18:51;;;;;;;13.23;8.70;;;5.00;99.90;;;;;;4959350;28;20218;-73
2024/03/02 05:21:16;;;;;;;13.47;8.53;;;5.00;99.90;;;;;;4953773;28;20223;-72
2024/03/02 05:23:42;;;;;;;12.03;8.10;;;5.00;99.90;;;;;;4973605;28;20221;-73
2024/03/02 05:26:08;;;;;;;16.03;8.37;;;5.00;99.90;;;;;;4953081;28;20288;-73
2024/03/02 05:28:33;;;;;;;12.83;8.43;;;5.00;99.90;;;;;;4941023;28;20297;-73
2024/03/02 05:30:59;;;;;;;13.10;9.00;;;4.90;99.90;;;;;;4956437;28;20232;-73
2024/03/02 05:33:24;;;;;;;14.60;9.30;;;4.80;99.90;;;;;;4961817;28;20237;-73
2024/03/02 05:35:50;;;;;;;12.47;7.97;;;4.70;99.90;;;;;;4961226;28;20306;-73
2024/03/02 05:38:16;;;;;;;13.70;8.53;;;4.80;99.90;;;;;;4955988;28;20362;-72
2024/03/02 05:40:41;;;;;;;14.93;8.73;;;4.90;99.90;;;;;;4964614;28;20574;-73
2024/03/02 05:43:07;;;;;;;15.27;7.93;;;4.90;99.90;;;;;;4971812;28;20215;-72
2024/03/02 05:45:33;;;;;;;17.10;7.93;;;5.00;99.90;;;;;;4961311;28;20234;-73
2024/03/02 05:47:58;;;;;;;13.17;8.23;;;5.00;99.90;;;;;;4947401;28;20222;-73
2024/03/02 05:50:24;;;;;;;13.20;8.17;;;5.10;99.90;;;;;;4969106;28;20285;-73
2024/03/02 05:52:50;;;;;;;14.73;8.97;;;5.10;99.90;;;;;;4967861;28;20219;-72
2024/03/02 05:55:15;;;;;;;12.30;7.73;;;5.10;99.90;;;;;;4948224;28;20237;-72
2024/03/02 06:00:10;;;;;;;11.93;7.20;;;5.10;99.90;;;;;;4969781;28;20222;-72
2024/03/02 06:02:40;;;;;;;8.93;6.80;;;5.10;99.90;;;;;;4968719;28;20461;-73
2024/03/02 06:05:07;;;;;;;11.83;7.57;;;5.00;99.90;;;;;;4981528;28;20533;-72
2024/03/02 06:07:32;;;;;;;11.93;8.00;;;5.00;99.90;;;;;;4966201;28;20473;-73
2024/03/02 06:09:58;;;;;;;14.67;9.40;;;5.00;99.90;;;;;;4969267;28;20446;-73
2024/03/02 06:12:24;;;;;;;13.50;8.47;;;5.00;99.90;;;;;;4968357;28;20223;-73
2024/03/02 06:14:49;;;;;;;10.23;8.00;;;5.10;99.90;;;;;;4953418;28;20301;-72
2024/03/02 06:17:15;;;;;;;10.90;7.50;;;5.10;99.90;;;;;;4967314;28;20301;-73
2024/03/02 06:19:41;;;;;;;12.70;7.60;;;5.10;99.90;;;;;;4968263;28;20227;-72
2024/03/02 06:22:09;;;;;;;12.73;7.27;;;5.10;99.90;;;;;;4980479;28;20296;-73
2024/03/02 06:24:36;;;;;;;10.03;6.93;;;5.10;99.90;;;;;;4964900;28;20219;-73
2024/03/02 06:27:02;;;;;;;10.57;7.40;;;5.10;99.90;;;;;;4961576;28;20498;-73
2024/03/02 06:29:27;;;;;;;12.50;8.00;;;5.10;99.90;;;;;;4968849;28;20474;-72
2024/03/02 06:31:53;;;;;;;11.13;7.27;;;5.20;99.90;;;;;;4973119;28;20218;-72
2024/03/02 06:34:19;;;;;;;11.13;6.77;;;5.20;99.90;;;;;;4968431;28;20583;-73
2024/03/02 06:36:44;;;;;;;13.73;8.80;;;5.20;99.90;;;;;;4964933;28;20227;-73
2024/03/02 06:39:12;;;;;;;9.70;6.70;;;5.20;99.90;;;;;;4952534;28;20246;-72
2024/03/02 06:41:38;;;;;;;14.73;8.10;;;5.20;99.90;;;;;;4964331;28;20222;-73
2024/03/02 06:44:04;;;;;;;10.40;7.00;;;5.20;99.90;;;;;;4969516;28;20545;-73
2024/03/02 06:46:29;;;;;;;10.50;7.50;;;5.20;99.90;;;;;;4965806;28;20743;-72
2024/03/02 06:48:55;;;;;;;9.50;7.47;;;5.20;99.90;;;;;;4982036;28;20226;-74
2024/03/02 06:51:20;;;;;;;10.93;7.37;;;5.20;99.90;;;;;;4966929;28;20230;-73
2024/03/02 06:53:46;;;;;;;10.50;7.00;;;5.20;99.90;;;;;;4964361;28;20220;-73
2024/03/02 06:56:12;;;;;;;13.10;7.20;;;5.20;99.90;;;;;;4965819;28;20614;-72
2024/03/02 06:58:38;;;;;;;13.60;8.93;;;5.20;99.90;;;;;;4980339;28;20682;-72
2024/03/02 07:01:03;;;;;;;17.73;8.97;;;5.20;99.90;;;;;;4965634;28;20218;-73
2024/03/02 07:03:29;;;;;;;14.93;7.50;;;5.20;99.90;;;;;;4965391;28;20232;-73
2024/03/02 07:05:54;;;;;;;9.23;6.90;;;5.30;99.90;;;;;;4967179;28;20211;-72
2024/03/02 07:08:20;;;;;;;12.20;7.10;;;5.30;99.90;;;;;;4966826;28;20304;-73
2024/03/02 07:10:46;;;;;;;9.27;6.87;;;5.20;99.90;;;;;;4968098;28;20643;-73
2024/03/02 07:13:13;;;;;;;11.20;7.20;;;5.20;99.90;;;;;;4964264;28;20215;-74
2024/03/02 07:18:22;;;;;;;10.60;7.10;;;5.30;99.90;;;;;;4982017;28;20509;-73
2024/03/02 07:20:49;;;;;;;8.40;6.20;;;5.30;99.90;;;;;;4963609;28;20475;-73
2024/03/02 07:23:15;;;;;;;7.40;5.63;;;5.30;99.90;;;;;;4963855;28;20230;-73
2024/03/02 07:25:40;;;;;;;10.47;6.87;;;5.40;99.90;;;;;;4966592;28;20728;-73
2024/03/02 07:28:07;;;;;;;8.40;6.30;;;5.40;99.90;;;;;;4966349;28;20596;-73
2024/03/02 07:30:33;;;;;;;8.90;6.70;;;5.40;99.90;;;;;;4963107;28;20688;-73
2024/03/02 07:32:59;;;;;;;10.43;7.30;;;5.40;99.90;;;;;;4958804;28;20520;-73
2024/03/02 07:35:28;;;;;;;11.20;7.40;;;5.40;99.90;;;;;;4958590;28;20542;-72
2024/03/02 07:37:55;;;;;;;9.53;7.30;;;5.50;99.90;;;;;;4962199;28;20461;-73
2024/03/02 07:40:21;;;;;;;10.50;6.80;;;5.50;99.90;;;;;;4956279;28;20473;-72
2024/03/02 07:42:46;;;;;;;8.77;6.43;;;5.50;99.90;;;;;;4958737;28;21177;-73
2024/03/02 07:45:12;;;;;;;9.70;7.23;;;5.50;99.90;;;;;;4959710;28;20222;-73
2024/03/02 07:47:37;;;;;;;13.20;7.80;;;5.50;99.90;;;;;;4959849;28;20219;-74
2024/03/02 07:50:06;;;;;;;14.23;8.60;;;5.60;99.90;;;;;;4951444;28;20216;-74
2024/03/02 07:52:32;;;;;;;13.93;8.70;;;5.60;99.90;;;;;;4959965;28;20306;-73
2024/03/02 07:54:58;;;;;;;13.93;8.83;;;5.60;99.90;;;;;;4954413;28;20557;-73
2024/03/02 07:57:24;;;;;;;14.07;8.97;;;5.60;99.90;;;;;;4959843;28;20544;-73
2024/03/02 07:59:49;;;;;;;16.30;9.43;;;5.60;99.90;;;;;;4958191;28;20222;-73
2024/03/02 08:02:15;;;;;;;12.13;8.33;;;5.70;99.90;;;;;;4956533;28;20288;-73
2024/03/02 08:04:41;;;;;;;9.47;7.30;;;5.70;99.90;;;;;;4962658;28;20226;-73
2024/03/02 08:07:07;;;;;;;11.97;8.57;;;5.70;99.90;;;;;;4957238;28;20211;-73
2024/03/02 08:09:32;;;;;;;12.30;8.60;;;5.70;99.90;;;;;;4959159;28;20224;-73
2024/03/02 08:11:58;;;;;;;13.90;8.07;;;5.70;99.90;;;;;;4943090;28;20210;-73
2024/03/02 08:14:24;;;;;;;9.23;6.50;;;5.70;99.90;;;;;;4975783;28;20228;-73
2024/03/02 08:16:50;;;;;;;10.00;6.50;;;5.80;99.90;;;;;;4962014;28;20283;-72
2024/03/02 08:19:16;;;;;;;8.83;6.73;;;5.80;99.90;;;;;;4954789;28;20476;-73
2024/03/02 08:21:43;;;;;;;8.47;6.13;;;5.80;99.90;;;;;;4970291;28;20276;-73
2024/03/02 08:24:09;;;;;;;10.03;7.13;;;5.80;99.90;;;;;;4955169;28;20463;-73
2024/03/02 08:26:35;;;;;;;18.87;10.67;;;5.90;99.90;;;;;;4960617;28;20462;-73
2024/03/02 08:29:03;;;;;;;21.57;11.67;;;5.80;99.90;;;;;;4954740;28;20313;-73
2024/03/02 08:31:30;;;;;;;23.03;12.50;;;5.90;99.90;;;;;;4942176;28;20480;-73
2024/03/02 08:33:56;;;;;;;28.40;13.57;;;5.90;99.90;;;;;;4963530;28;20538;-73
2024/03/02 08:36:23;;;;;;;41.00;19.13;;;6.00;99.90;;;;;;4960587;28;20538;-73
2024/03/02 08:38:52;;;;;;;41.03;19.90;;;6.00;99.90;;;;;;4959886;28;20463;-73
2024/03/02 08:41:18;;;;;;;42.17;19.33;;;6.10;99.90;;;;;;4957266;28;20470;-73
2024/03/02 08:43:44;;;;;;;32.97;18.07;;;6.10;99.90;;;;;;4954800;28;20467;-73
2024/03/02 08:46:10;;;;;;;23.07;14.50;;;6.20;99.90;;;;;;4955965;28;20466;-73
2024/03/02 08:48:35;;;;;;;16.57;11.23;;;6.20;99.90;;;;;;4957485;28;20465;-73
2024/03/02 08:51:04;;;;;;;14.03;9.67;;;6.30;99.90;;;;;;4955541;28;20218;-73
2024/03/02 08:53:30;;;;;;;14.30;8.77;;;6.30;99.90;;;;;;4960600;28;20293;-73
2024/03/02 08:55:55;;;;;;;15.43;10.23;;;6.30;99.90;;;;;;4960093;28;20980;-73
2024/03/02 08:58:21;;;;;;;24.37;14.77;;;6.40;99.90;;;;;;4956458;28;20687;-73
2024/03/02 09:00:47;;;;;;;29.97;17.37;;;6.40;99.90;;;;;;4958122;28;20223;-74
2024/03/02 09:03:13;;;;;;;35.20;20.40;;;6.50;99.90;;;;;;4958239;28;20927;-73
2024/03/02 09:05:38;;;;;;;24.17;15.17;;;6.50;99.90;;;;;;4972720;28;20457;-73
2024/03/02 09:08:04;;;;;;;22.67;14.00;;;6.50;99.90;;;;;;4960416;28;20229;-74
2024/03/02 09:10:30;;;;;;;17.27;11.93;;;6.60;99.90;;;;;;4961839;28;20554;-74
2024/03/02 09:12:56;;;;;;;15.50;9.90;;;6.60;99.90;;;;;;4962242;28;20494;-74
2024/03/02 09:15:21;;;;;;;14.80;8.53;;;6.70;99.90;;;;;;4961285;28;20688;-74
2024/03/02 09:17:47;;;;;;;11.53;8.30;;;6.70;99.90;;;;;;4961800;28;20242;-73
2024/03/02 09:20:13;;;;;;;12.33;8.30;;;6.70;99.90;;;;;;4958295;28;20631;-73
2024/03/02 09:22:39;;;;;;;9.23;6.20;;;6.80;99.90;;;;;;4963210;28;20260;-74
2024/03/02 09:25:08;;;;;;;12.13;7.90;;;6.80;99.90;;;;;;4959801;28;20497;-74
2024/03/02 09:27:37;;;;;;;10.47;6.50;;;6.80;99.90;;;;;;4964660;28;20310;-74
2024/03/02 09:30:07;;;;;;;8.73;6.43;;;6.90;99.90;;;;;;4958852;28;20490;-74
2024/03/02 09:32:33;;;;;;;10.30;7.63;;;6.90;99.90;;;;;;4977758;28;20470;-73
2024/03/02 09:34:59;;;;;;;13.80;8.20;;;7.00;99.90;;;;;;4957595;28;20473;-74
2024/03/02 09:37:24;;;;;;;9.07;6.60;;;7.00;99.90;;;;;;4961542;28;20219;-73
2024/03/02 09:39:51;;;;;;;14.97;9.10;;;7.10;99.90;;;;;;4964374;28;20223;-73
2024/03/02 09:42:17;;;;;;;10.50;7.40;;;7.10;99.90;;;;;;4960801;28;21867;-74
2024/03/02 09:44:43;;;;;;;12.77;8.03;;;7.10;99.90;;;;;;4960795;28;20454;-74
2024/03/02 09:47:09;;;;;;;10.00;7.20;;;7.20;99.90;;;;;;4960012;28;20211;-74
2024/03/02 09:49:35;;;;;;;11.00;7.20;;;7.20;99.90;;;;;;4960913;28;20474;-74
2024/03/02 09:52:02;;;;;;;10.20;7.63;;;7.30;99.90;;;;;;4960164;28;20688;-74
2024/03/02 09:54:28;;;;;;;11.70;8.50;;;7.40;99.90;;;;;;4961722;28;20456;-73
2024/03/02 09:56:54;;;;;;;9.77;6.47;;;7.40;99.90;;;;;;4961501;28;20462;-74
2024/03/02 09:59:20;;;;;;;15.30;9.40;;;7.40;99.90;;;;;;4942596;28;20226;-74
2024/03/02 10:01:59;;;;;;;20.50;10.90;;;7.50;99.90;;;;;;4946367;28;20477;-74
2024/03/02 10:04:30;;;;;;;19.70;11.70;;;7.60;99.90;;;;;;4962763;28;20230;-74
2024/03/02 10:07:14;;;;;;;18.13;11.10;;;7.60;99.90;;;;;;4974427;28;20533;-74
2024/03/02 10:09:41;;;;;;;23.50;13.10;;;7.70;99.90;;;;;;4959100;28;21027;-73
2024/03/02 10:12:11;;;;;;;19.10;12.63;;;7.70;99.90;;;;;;4938981;28;20471;-74
2024/03/02 10:14:37;;;;;;;27.40;15.43;;;7.70;99.90;;;;;;4973225;28;20488;-74
2024/03/02 10:17:10;;;;;;;27.67;15.60;;;7.80;99.90;;;;;;4959553;28;20552;-74
2024/03/02 10:19:37;;;;;;;28.53;18.07;;;7.80;99.90;;;;;;4962776;28;21032;-74
2024/03/02 10:22:07;;;;;;;32.17;17.40;;;7.80;99.90;;;;;;4951205;28;20470;-74
2024/03/02 10:24:40;;;;;;;26.53;16.63;;;8.00;99.90;;;;;;4962095;28;20842;-74
2024/03/02 10:27:14;;;;;;;21.90;13.27;;;8.00;99.90;;;;;;4971630;28;20498;-74
2024/03/02 10:29:40;;;;;;;17.83;11.03;;;8.10;99.90;;;;;;4961098;28;20560;-74
2024/03/02 10:32:10;;;;;;;14.50;10.40;;;8.20;99.90;;;;;;4964995;28;20457;-73
2024/03/02 10:34:37;;;;;;;24.80;12.93;;;8.20;99.90;;;;;;4944535;28;20465;-73
2024/03/02 10:37:03;;;;;;;27.07;13.00;;;8.20;99.90;;;;;;4975608;28;20508;-73
2024/03/02 10:39:29;;;;;;;23.63;14.80;;;8.30;99.90;;;;;;4967804;28;20516;-73
2024/03/02 10:41:56;;;;;;;30.47;17.40;;;8.30;99.90;;;;;;4982709;28;20500;-74
2024/03/02 10:44:23;;;;;;;36.73;18.97;;;8.40;99.90;;;;;;4960618;28;20450;-73
2024/03/02 10:46:50;;;;;;;26.00;15.20;;;8.40;99.90;;;;;;4970236;28;21043;-74
2024/03/02 10:49:17;;;;;;;26.50;13.80;;;8.40;99.90;;;;;;4953873;28;20484;-74
2024/03/02 10:51:43;;;;;;;29.80;15.60;;;8.40;99.90;;;;;;4968840;28;20473;-74
2024/03/02 10:54:08;;;;;;;27.37;17.97;;;8.40;99.90;;;;;;4965051;28;20499;-74
2024/03/02 10:56:41;;;;;;;23.70;14.90;;;8.40;99.90;;;;;;4966026;28;20281;-73
2024/03/02 10:59:21;;;;;;;24.00;13.27;;;8.40;99.90;;;;;;4966855;28;20688;-73
2024/03/02 11:01:53;;;;;;;16.23;10.97;;;8.50;99.90;;;;;;4979620;28;20470;-73
2024/03/02 11:04:22;;;;;;;12.80;9.23;;;8.50;99.90;;;;;;4963234;28;20449;-74
2024/03/02 11:06:49;;;;;;;14.23;9.20;;;8.60;99.90;;;;;;4963983;28;20506;-74
2024/03/02 11:09:20;;;;;;;15.07;8.90;;;8.60;99.90;;;;;;4967223;28;20458;-74
2024/03/02 11:11:54;;;;;;;14.63;9.60;;;8.60;99.90;;;;;;4963021;28;20481;-73
2024/03/02 11:14:24;;;;;;;15.27;10.57;;;8.70;99.90;;;;;;4977908;28;20465;-74
2024/03/02 11:16:51;;;;;;;14.90;9.90;;;8.70;99.90;;;;;;4974649;28;20514;-75
2024/03/02 11:19:18;;;;;;;13.40;8.93;;;8.70;99.90;;;;;;4965274;28;20619;-74
2024/03/02 11:21:44;;;;;;;12.23;9.07;;;8.80;99.90;;;;;;4962384;28;20487;-74
2024/03/02 11:24:32;;;;;;;13.33;8.93;;;8.80;99.90;;;;;;4964790;28;20474;-74
2024/03/02 11:27:08;;;;;;;10.57;8.37;;;8.90;99.90;;;;;;4965252;28;20450;-74
2024/03/02 11:29:36;;;;;;;11.10;8.10;;;8.90;99.90;;;;;;4967293;28;20858;-73
2024/03/02 11:32:03;;;;;;;11.67;8.03;;;9.00;99.90;;;;;;4963744;28;20508;-73
2024/03/02 11:34:31;;;;;;;10.37;7.67;;;9.10;99.90;;;;;;4961029;28;20462;-73
2024/03/02 11:36:58;;;;;;;11.63;7.67;;;9.20;99.90;;;;;;4964083;28;20486;-73
2024/03/02 11:39:26;;;;;;;13.70;8.47;;;9.30;99.90;;;;;;4965427;28;20465;-73
2024/03/02 11:41:51;;;;;;;14.27;8.13;;;9.30;99.90;;;;;;4963039;28;20552;-74
2024/03/02 11:44:17;;;;;;;10.83;7.83;;;9.40;99.90;;;;;;4963657;28;20948;-73
2024/03/02 11:46:46;;;;;;;12.03;7.60;;;9.50;99.90;;;;;;4964899;28;20229;-74
2024/03/02 11:49:15;;;;;;;10.53;7.80;;;9.60;99.90;;;;;;4966658;28;20643;-74
2024/03/02 11:52:00;;;;;;;9.57;7.13;;;9.60;99.90;;;;;;4947501;28;20505;-74
2024/03/02 11:54:30;;;;;;;11.70;7.80;;;9.80;99.90;;;;;;4961541;28;20542;-74
2024/03/02 11:56:56;;;;;;;13.10;8.00;;;9.90;99.90;;;;;;4946752;28;20862;-74
2024/03/02 11:59:23;;;;;;;9.30;6.60;;;9.90;99.90;;;;;;4964055;28;20479;-74
2024/03/02 12:01:50;;;;;;;9.20;6.87;;;10.00;99.90;;;;;;4979166;28;20979;-74
2024/03/02 12:04:16;;;;;;;10.23;6.60;;;10.10;99.90;;;;;;4963672;28;20442;-74
2024/03/02 12:06:42;;;;;;;8.40;6.20;;;10.20;99.90;;;;;;4965502;28;20454;-73
2024/03/02 12:09:12;;;;;;;10.93;7.63;;;10.30;99.90;;;;;;4960305;28;20451;-74
2024/03/02 12:11:37;;;;;;;10.57;7.27;;;10.50;99.90;;;;;;4964041;28;20458;-74
2024/03/02 12:14:04;;;;;;;10.80;8.40;;;10.50;99.90;;;;;;4962774;28;20459;-74
2024/03/02 12:16:30;;;;;;;10.30;8.20;;;10.60;99.90;;;;;;4965332;28;20218;-72
2024/03/02 12:18:55;;;;;;;12.87;8.17;;;10.60;99.90;;;;;;4963947;28;20480;-74
2024/03/02 12:21:21;;;;;;;9.97;8.20;;;10.50;99.90;;;;;;4962216;28;20250;-74
2024/03/02 12:23:47;;;;;;;11.87;9.30;;;10.50;99.90;;;;;;4962011;28;20220;-74
2024/03/02 12:26:13;;;;;;;9.87;8.53;;;10.60;99.90;;;;;;4961695;28;20214;-74
2024/03/02 12:28:38;;;;;;;11.17;8.57;;;10.80;99.90;;;;;;4972252;28;20315;-74
2024/03/02 12:31:04;;;;;;;13.13;9.17;;;11.00;99.90;;;;;;4967502;28;20242;-73
2024/03/02 12:33:30;;;;;;;13.93;8.17;;;11.10;99.90;;;;;;4964717;28;20229;-73
2024/03/02 12:35:58;;;;;;;9.73;6.77;;;11.30;99.90;;;;;;4964911;28;20269;-74
2024/03/02 12:38:25;;;;;;;11.67;8.43;;;11.40;99.90;;;;;;4960542;28;20497;-74
2024/03/02 12:40:52;;;;;;;12.00;8.37;;;11.30;99.90;;;;;;4962352;28;20474;-73
2024/03/02 12:43:18;;;;;;;11.30;8.37;;;11.60;99.90;;;;;;4967070;28;20492;-74
2024/03/02 12:45:44;;;;;;;22.20;9.53;;;11.80;99.90;;;;;;4971028;28;20478;-74
2024/03/02 12:48:09;;;;;;;10.87;8.20;;;12.00;99.90;;;;;;4951372;28;20211;-74
2024/03/02 12:50:35;;;;;;;11.23;8.57;;;12.00;99.90;;;;;;4977748;28;20521;-74